sensor_id;sensor_type;location;lat;lon;timestamp;pressure;altitude;pressure_sealevel;temperature
32039;BMP280;18549;42.286;22.688;2022-10-16T00:00:45;96270.22;;;15.37
32039;BMP280;18549;42.286;22.688;2022-10-16T00:03:14;96265.47;;;15.34
32039;BMP280;18549;42.286;22.688;2022-10-16T00:05:43;96268.94;;;15.31
32039;BMP280;18549;42.286;22.688;2022-10-16T00:08:12;96269.75;;;15.32
32039;BMP280;18549;42.286;22.688;2022-10-16T00:10:39;96272.38;;;15.30
32039;BMP280;18549;42.286;22.688;2022-10-16T00:13:07;96275.88;;;15.28
32039;BMP280;18549;42.286;22.688;2022-10-16T00:15:34;96286.09;;;15.25
32039;BMP280;18549;42.286;22.688;2022-10-16T00:18:03;96296.78;;;15.27
32039;BMP280;18549;42.286;22.688;2022-10-16T00:20:29;96296.78;;;15.27
32039;BMP280;18549;42.286;22.688;2022-10-16T00:23:00;96286.28;;;15.22
32039;BMP280;18549;42.286;22.688;2022-10-16T00:25:28;96288.91;;;15.20
32039;BMP280;18549;42.286;22.688;2022-10-16T00:27:58;96284.34;;;15.15
32039;BMP280;18549;42.286;22.688;2022-10-16T00:30:24;96292.75;;;15.14
32039;BMP280;18549;42.286;22.688;2022-10-16T00:32:53;96302.94;;;15.11
32039;BMP280;18549;42.286;22.688;2022-10-16T00:35:20;96303.03;;;15.09
32039;BMP280;18549;42.286;22.688;2022-10-16T00:37:47;96301.41;;;15.08
32039;BMP280;18549;42.286;22.688;2022-10-16T00:40:15;96301.06;;;15.02
32039;BMP280;18549;42.286;22.688;2022-10-16T00:42:44;96303.66;;;15.00
32039;BMP280;18549;42.286;22.688;2022-10-16T00:45:14;96306.38;;;14.97
32039;BMP280;18549;42.286;22.688;2022-10-16T00:47:43;96299.31;;;14.91
32039;BMP280;18549;42.286;22.688;2022-10-16T00:50:16;96302.03;;;14.88
32039;BMP280;18549;42.286;22.688;2022-10-16T00:52:46;96298.69;;;14.88
32039;BMP280;18549;42.286;22.688;2022-10-16T00:55:16;96299.41;;;14.90
32039;BMP280;18549;42.286;22.688;2022-10-16T00:57:45;96298.84;;;14.74
32039;BMP280;18549;42.286;22.688;2022-10-16T01:00:15;96304.84;;;14.72
32039;BMP280;18549;42.286;22.688;2022-10-16T01:02:44;96296.37;;;14.74
32039;BMP280;18549;42.286;22.688;2022-10-16T01:05:12;96296.28;;;14.76
32039;BMP280;18549;42.286;22.688;2022-10-16T01:07:46;96292.97;;;14.75
32039;BMP280;18549;42.286;22.688;2022-10-16T01:10:25;96297.19;;;14.75
32039;BMP280;18549;42.286;22.688;2022-10-16T01:12:57;96299.78;;;14.73
32039;BMP280;18549;42.286;22.688;2022-10-16T01:15:28;96308.97;;;14.73
32039;BMP280;18549;42.286;22.688;2022-10-16T01:18:00;96309.28;;;14.68
32039;BMP280;18549;42.286;22.688;2022-10-16T01:20:33;96318.56;;;14.66
32039;BMP280;18549;42.286;22.688;2022-10-16T01:23:12;96317.78;;;14.66
32039;BMP280;18549;42.286;22.688;2022-10-16T01:25:55;96313.97;;;14.60
32039;BMP280;18549;42.286;22.688;2022-10-16T01:28:32;96305.91;;;14.57
32039;BMP280;18549;42.286;22.688;2022-10-16T01:31:01;96306.13;;;14.54
32039;BMP280;18549;42.286;22.688;2022-10-16T01:33:38;96308.81;;;14.51
32039;BMP280;18549;42.286;22.688;2022-10-16T01:36:10;96305.44;;;14.40
32039;BMP280;18549;42.286;22.688;2022-10-16T01:38:39;96306.56;;;14.36
32039;BMP280;18549;42.286;22.688;2022-10-16T01:41:09;96310.75;;;14.35
32039;BMP280;18549;42.286;22.688;2022-10-16T01:43:40;96302.47;;;14.35
32039;BMP280;18549;42.286;22.688;2022-10-16T01:46:09;96305.56;;;14.38
32039;BMP280;18549;42.286;22.688;2022-10-16T01:48:40;96314.94;;;14.35
32039;BMP280;18549;42.286;22.688;2022-10-16T01:51:10;96311.75;;;14.33
32039;BMP280;18549;42.286;22.688;2022-10-16T01:53:39;96314.16;;;14.34
32039;BMP280;18549;42.286;22.688;2022-10-16T01:56:09;96311.87;;;14.31
32039;BMP280;18549;42.286;22.688;2022-10-16T01:58:42;96313.75;;;14.28
32039;BMP280;18549;42.286;22.688;2022-10-16T02:01:11;96329.63;;;14.27
32039;BMP280;18549;42.286;22.688;2022-10-16T02:03:40;96332.22;;;14.25
32039;BMP280;18549;42.286;22.688;2022-10-16T02:06:08;96342.69;;;14.18
32039;BMP280;18549;42.286;22.688;2022-10-16T02:08:37;96348.97;;;14.11
32039;BMP280;18549;42.286;22.688;2022-10-16T02:11:06;96345.78;;;14.09
32039;BMP280;18549;42.286;22.688;2022-10-16T02:13:36;96347.38;;;14.10
32039;BMP280;18549;42.286;22.688;2022-10-16T02:16:06;96357.34;;;14.10
32039;BMP280;18549;42.286;22.688;2022-10-16T02:18:34;96360.75;;;14.09
32039;BMP280;18549;42.286;22.688;2022-10-16T02:21:02;96365.81;;;14.08
32039;BMP280;18549;42.286;22.688;2022-10-16T02:23:43;96355.16;;;14.06
32039;BMP280;18549;42.286;22.688;2022-10-16T02:26:14;96361.03;;;14.05
32039;BMP280;18549;42.286;22.688;2022-10-16T02:28:46;96361.84;;;14.05
32039;BMP280;18549;42.286;22.688;2022-10-16T02:31:19;96360.25;;;14.04
32039;BMP280;18549;42.286;22.688;2022-10-16T02:33:51;96361.25;;;14.02
32039;BMP280;18549;42.286;22.688;2022-10-16T02:36:19;96364.75;;;13.99
32039;BMP280;18549;42.286;22.688;2022-10-16T02:38:47;96363.13;;;13.98
32039;BMP280;18549;42.286;22.688;2022-10-16T02:41:14;96371.47;;;13.97
32039;BMP280;18549;42.286;22.688;2022-10-16T02:43:41;96379.34;;;13.91
32039;BMP280;18549;42.286;22.688;2022-10-16T02:46:11;96374.34;;;13.91
32039;BMP280;18549;42.286;22.688;2022-10-16T02:48:39;96371.06;;;13.91
32039;BMP280;18549;42.286;22.688;2022-10-16T02:51:06;96370.28;;;13.90
32039;BMP280;18549;42.286;22.688;2022-10-16T02:53:33;96374.56;;;13.88
32039;BMP280;18549;42.286;22.688;2022-10-16T02:56:00;96376.25;;;13.88
32039;BMP280;18549;42.286;22.688;2022-10-16T02:58:27;96375.44;;;13.87
32039;BMP280;18549;42.286;22.688;2022-10-16T03:00:55;96370.66;;;13.84
32039;BMP280;18549;42.286;22.688;2022-10-16T03:03:22;96362.50;;;13.83
32039;BMP280;18549;42.286;22.688;2022-10-16T03:05:50;96361.69;;;13.82
32039;BMP280;18549;42.286;22.688;2022-10-16T03:08:17;96368.47;;;13.80
32039;BMP280;18549;42.286;22.688;2022-10-16T03:10:48;96355.91;;;13.82
32039;BMP280;18549;42.286;22.688;2022-10-16T03:13:15;96358.72;;;13.77
32039;BMP280;18549;42.286;22.688;2022-10-16T03:15:43;96357.28;;;13.73
32039;BMP280;18549;42.286;22.688;2022-10-16T03:18:11;96366.66;;;13.70
32039;BMP280;18549;42.286;22.688;2022-10-16T03:20:40;96370.66;;;13.72
32039;BMP280;18549;42.286;22.688;2022-10-16T03:23:09;96369.16;;;13.70
32039;BMP280;18549;42.286;22.688;2022-10-16T03:25:36;96365.06;;;13.69
32039;BMP280;18549;42.286;22.688;2022-10-16T03:28:06;96358.28;;;13.71
32039;BMP280;18549;42.286;22.688;2022-10-16T03:30:33;96358.37;;;13.69
32039;BMP280;18549;42.286;22.688;2022-10-16T03:33:01;96363.06;;;13.61
32039;BMP280;18549;42.286;22.688;2022-10-16T03:35:28;96363.97;;;13.60
32039;BMP280;18549;42.286;22.688;2022-10-16T03:37:55;96359.78;;;13.61
32039;BMP280;18549;42.286;22.688;2022-10-16T03:40:24;96364.97;;;13.58
32039;BMP280;18549;42.286;22.688;2022-10-16T03:42:51;96368.34;;;13.57
32039;BMP280;18549;42.286;22.688;2022-10-16T03:45:20;96367.63;;;13.55
32039;BMP280;18549;42.286;22.688;2022-10-16T03:47:47;96364.53;;;13.52
32039;BMP280;18549;42.286;22.688;2022-10-16T03:50:14;96363.72;;;13.51
32039;BMP280;18549;42.286;22.688;2022-10-16T03:52:41;96377.28;;;13.47
32039;BMP280;18549;42.286;22.688;2022-10-16T03:55:08;96369.81;;;13.47
32039;BMP280;18549;42.286;22.688;2022-10-16T03:57:39;96381.22;;;13.37
32039;BMP280;18549;42.286;22.688;2022-10-16T04:00:07;96389.28;;;13.28
32039;BMP280;18549;42.286;22.688;2022-10-16T04:02:34;96386.44;;;13.20
32039;BMP280;18549;42.286;22.688;2022-10-16T04:05:01;96388.84;;;13.22
32039;BMP280;18549;42.286;22.688;2022-10-16T04:07:29;96388.78;;;13.10
32039;BMP280;18549;42.286;22.688;2022-10-16T04:09:56;96385.31;;;13.12
32039;BMP280;18549;42.286;22.688;2022-10-16T04:12:24;96388.09;;;13.08
32039;BMP280;18549;42.286;22.688;2022-10-16T04:14:53;96379.03;;;13.07
32039;BMP280;18549;42.286;22.688;2022-10-16T04:17:20;96384.00;;;13.07
32039;BMP280;18549;42.286;22.688;2022-10-16T04:19:48;96378.84;;;13.10
32039;BMP280;18549;42.286;22.688;2022-10-16T04:22:15;96385.31;;;13.12
32039;BMP280;18549;42.286;22.688;2022-10-16T04:24:42;96388.69;;;13.11
32039;BMP280;18549;42.286;22.688;2022-10-16T04:27:09;96384.44;;;13.13
32039;BMP280;18549;42.286;22.688;2022-10-16T04:29:36;96386.84;;;13.15
32039;BMP280;18549;42.286;22.688;2022-10-16T04:32:04;96387.00;;;13.12
32039;BMP280;18549;42.286;22.688;2022-10-16T04:34:31;96383.81;;;13.10
32039;BMP280;18549;42.286;22.688;2022-10-16T04:36:57;96379.72;;;13.09
32039;BMP280;18549;42.286;22.688;2022-10-16T04:39:24;96374.69;;;13.10
32039;BMP280;18549;42.286;22.688;2022-10-16T04:41:51;96378.84;;;13.10
32039;BMP280;18549;42.286;22.688;2022-10-16T04:44:21;96372.06;;;13.12
32039;BMP280;18549;42.286;22.688;2022-10-16T04:46:50;96384.62;;;13.10
32039;BMP280;18549;42.286;22.688;2022-10-16T04:49:19;96381.16;;;13.13
32039;BMP280;18549;42.286;22.688;2022-10-16T04:51:45;96383.81;;;13.10
32039;BMP280;18549;42.286;22.688;2022-10-16T04:54:13;96398.75;;;13.10
32039;BMP280;18549;42.286;22.688;2022-10-16T04:56:39;96396.37;;;13.08
32039;BMP280;18549;42.286;22.688;2022-10-16T04:59:12;96397.34;;;13.06
32039;BMP280;18549;42.286;22.688;2022-10-16T05:01:39;96392.38;;;13.06
32039;BMP280;18549;42.286;22.688;2022-10-16T05:04:06;96394.22;;;13.02
32039;BMP280;18549;42.286;22.688;2022-10-16T05:06:37;96395.13;;;13.01
32039;BMP280;18549;42.286;22.688;2022-10-16T05:09:04;96395.94;;;13.02
32039;BMP280;18549;42.286;22.688;2022-10-16T05:11:34;96403.47;;;13.00
32039;BMP280;18549;42.286;22.688;2022-10-16T05:14:02;96401.97;;;12.98
32039;BMP280;18549;42.286;22.688;2022-10-16T05:16:29;96406.44;;;12.93
32039;BMP280;18549;42.286;22.688;2022-10-16T05:18:58;96409.28;;;12.87
32039;BMP280;18549;42.286;22.688;2022-10-16T05:21:26;96418.34;;;12.88
32039;BMP280;18549;42.286;22.688;2022-10-16T05:23:58;96414.97;;;12.89
32039;BMP280;18549;42.286;22.688;2022-10-16T05:26:26;96414.09;;;12.90
32039;BMP280;18549;42.286;22.688;2022-10-16T05:28:53;96418.09;;;12.92
32039;BMP280;18549;42.286;22.688;2022-10-16T05:31:20;96418.16;;;12.91
32039;BMP280;18549;42.286;22.688;2022-10-16T05:33:47;96419.78;;;12.92
32039;BMP280;18549;42.286;22.688;2022-10-16T05:36:14;96425.63;;;12.91
32039;BMP280;18549;42.286;22.688;2022-10-16T05:38:41;96438.06;;;12.91
32039;BMP280;18549;42.286;22.688;2022-10-16T05:41:10;96443.03;;;12.91
32039;BMP280;18549;42.286;22.688;2022-10-16T05:43:36;96443.84;;;12.91
32039;BMP280;18549;42.286;22.688;2022-10-16T05:46:05;96441.47;;;12.90
32039;BMP280;18549;42.286;22.688;2022-10-16T05:48:32;96443.75;;;12.93
32039;BMP280;18549;42.286;22.688;2022-10-16T05:51:01;96457.78;;;12.94
32039;BMP280;18549;42.286;22.688;2022-10-16T05:53:30;96451.69;;;12.86
32039;BMP280;18549;42.286;22.688;2022-10-16T05:55:58;96457.25;;;12.75
32039;BMP280;18549;42.286;22.688;2022-10-16T05:58:31;96453.16;;;12.74
32039;BMP280;18549;42.286;22.688;2022-10-16T06:01:02;96459.91;;;12.72
32039;BMP280;18549;42.286;22.688;2022-10-16T06:03:29;96451.94;;;12.81
32039;BMP280;18549;42.286;22.688;2022-10-16T06:05:58;96457.37;;;12.87
32039;BMP280;18549;42.286;22.688;2022-10-16T06:08:29;96454.69;;;12.90
32039;BMP280;18549;42.286;22.688;2022-10-16T06:11:03;96464.37;;;12.95
32039;BMP280;18549;42.286;22.688;2022-10-16T06:13:32;96465.97;;;12.96
32039;BMP280;18549;42.286;22.688;2022-10-16T06:16:00;96462.41;;;13.00
32039;BMP280;18549;42.286;22.688;2022-10-16T06:18:29;96467.03;;;13.06
32039;BMP280;18549;42.286;22.688;2022-10-16T06:20:57;96468.44;;;13.10
32039;BMP280;18549;42.286;22.688;2022-10-16T06:23:25;96469.25;;;13.10
32039;BMP280;18549;42.286;22.688;2022-10-16T06:25:52;96474.84;;;13.14
32039;BMP280;18549;42.286;22.688;2022-10-16T06:28:18;96475.34;;;13.18
32039;BMP280;18549;42.286;22.688;2022-10-16T06:30:47;96472.50;;;13.24
32039;BMP280;18549;42.286;22.688;2022-10-16T06:33:14;96468.75;;;13.31
32039;BMP280;18549;42.286;22.688;2022-10-16T06:35:41;96474.06;;;13.39
32039;BMP280;18549;42.286;22.688;2022-10-16T06:38:07;96476.91;;;13.47
32039;BMP280;18549;42.286;22.688;2022-10-16T06:40:34;96474.03;;;13.53
32039;BMP280;18549;42.286;22.688;2022-10-16T06:43:01;96470.25;;;13.60
32039;BMP280;18549;42.286;22.688;2022-10-16T06:45:28;96476.66;;;13.64
32039;BMP280;18549;42.286;22.688;2022-10-16T06:47:57;96475.31;;;13.72
32039;BMP280;18549;42.286;22.688;2022-10-16T06:50:24;96485.88;;;13.76
32039;BMP280;18549;42.286;22.688;2022-10-16T06:52:51;96488.06;;;13.80
32039;BMP280;18549;42.286;22.688;2022-10-16T06:55:19;96483.72;;;13.84
32039;BMP280;18549;42.286;22.688;2022-10-16T06:57:47;96487.91;;;13.83
32039;BMP280;18549;42.286;22.688;2022-10-16T07:00:14;96489.22;;;13.88
32039;BMP280;18549;42.286;22.688;2022-10-16T07:02:41;96494.69;;;13.93
32039;BMP280;18549;42.286;22.688;2022-10-16T07:05:10;96490.09;;;14.01
32039;BMP280;18549;42.286;22.688;2022-10-16T07:07:37;96491.38;;;14.07
32039;BMP280;18549;42.286;22.688;2022-10-16T07:10:04;96486.91;;;14.12
32039;BMP280;18549;42.286;22.688;2022-10-16T07:12:31;96487.59;;;14.14
32039;BMP280;18549;42.286;22.688;2022-10-16T07:14:58;96495.28;;;14.11
32039;BMP280;18549;42.286;22.688;2022-10-16T07:17:25;96497.28;;;14.18
32039;BMP280;18549;42.286;22.688;2022-10-16T07:19:55;96494.59;;;14.21
32039;BMP280;18549;42.286;22.688;2022-10-16T07:22:25;96499.66;;;14.19
32039;BMP280;18549;42.286;22.688;2022-10-16T07:24:52;96500.28;;;14.23
32039;BMP280;18549;42.286;22.688;2022-10-16T07:27:22;96495.28;;;14.23
32039;BMP280;18549;42.286;22.688;2022-10-16T07:29:50;96494.59;;;14.21
32039;BMP280;18549;42.286;22.688;2022-10-16T07:32:16;96498.59;;;14.23
32039;BMP280;18549;42.286;22.688;2022-10-16T07:34:47;96500.50;;;14.32
32039;BMP280;18549;42.286;22.688;2022-10-16T07:37:17;96493.22;;;14.42
32039;BMP280;18549;42.286;22.688;2022-10-16T07:39:53;96504.41;;;14.49
32039;BMP280;18549;42.286;22.688;2022-10-16T07:42:20;96492.63;;;14.51
32039;BMP280;18549;42.286;22.688;2022-10-16T07:44:48;96495.44;;;14.58
32039;BMP280;18549;42.286;22.688;2022-10-16T07:47:15;96498.53;;;14.62
32039;BMP280;18549;42.286;22.688;2022-10-16T07:49:42;96488.94;;;14.68
32039;BMP280;18549;42.286;22.688;2022-10-16T07:52:09;96498.31;;;14.77
32039;BMP280;18549;42.286;22.688;2022-10-16T07:54:35;96502.00;;;14.84
32039;BMP280;18549;42.286;22.688;2022-10-16T07:57:04;96492.31;;;14.92
32039;BMP280;18549;42.286;22.688;2022-10-16T07:59:31;96488.31;;;15.02
32039;BMP280;18549;42.286;22.688;2022-10-16T08:01:57;96499.22;;;15.13
32039;BMP280;18549;42.286;22.688;2022-10-16T08:04:24;96502.69;;;15.23
32039;BMP280;18549;42.286;22.688;2022-10-16T08:06:51;96497.88;;;15.32
32039;BMP280;18549;42.286;22.688;2022-10-16T08:09:19;96489.84;;;15.40
32039;BMP280;18549;42.286;22.688;2022-10-16T08:11:47;96487.50;;;15.49
32039;BMP280;18549;42.286;22.688;2022-10-16T08:14:15;96484.28;;;15.59
32039;BMP280;18549;42.286;22.688;2022-10-16T08:16:47;96483.66;;;15.68
32039;BMP280;18549;42.286;22.688;2022-10-16T08:19:18;96487.19;;;15.77
32039;BMP280;18549;42.286;22.688;2022-10-16T08:21:47;96475.66;;;15.86
32039;BMP280;18549;42.286;22.688;2022-10-16T08:24:17;96483.00;;;16.00
32039;BMP280;18549;42.286;22.688;2022-10-16T08:26:45;96477.53;;;16.06
32039;BMP280;18549;42.286;22.688;2022-10-16T08:29:14;96476.44;;;16.10
32039;BMP280;18549;42.286;22.688;2022-10-16T08:31:41;96475.81;;;16.19
32039;BMP280;18549;42.286;22.688;2022-10-16T08:34:08;96480.16;;;16.28
32039;BMP280;18549;42.286;22.688;2022-10-16T08:36:35;96482.09;;;16.35
32039;BMP280;18549;42.286;22.688;2022-10-16T08:39:04;96470.84;;;16.41
32039;BMP280;18549;42.286;22.688;2022-10-16T08:41:54;96475.41;;;16.47
32039;BMP280;18549;42.286;22.688;2022-10-16T08:44:39;96484.75;;;16.55
32039;BMP280;18549;42.286;22.688;2022-10-16T08:47:14;96465.88;;;16.62
32039;BMP280;18549;42.286;22.688;2022-10-16T08:49:50;96482.03;;;16.69
32039;BMP280;18549;42.286;22.688;2022-10-16T08:52:33;96472.94;;;16.79
32039;BMP280;18549;42.286;22.688;2022-10-16T08:55:01;96478.41;;;16.95
32039;BMP280;18549;42.286;22.688;2022-10-16T08:57:29;96476.69;;;16.95
32039;BMP280;18549;42.286;22.688;2022-10-16T09:00:00;96477.28;;;17.10
32039;BMP280;18549;42.286;22.688;2022-10-16T09:02:35;96481.84;;;17.16
32039;BMP280;18549;42.286;22.688;2022-10-16T09:05:25;96478.53;;;17.26
32039;BMP280;18549;42.286;22.688;2022-10-16T09:08:01;96475.31;;;17.35
32039;BMP280;18549;42.286;22.688;2022-10-16T09:10:38;96476.91;;;17.47
32039;BMP280;18549;42.286;22.688;2022-10-16T09:13:18;96476.06;;;17.57
32039;BMP280;18549;42.286;22.688;2022-10-16T09:18:54;96476.53;;;17.51
32039;BMP280;18549;42.286;22.688;2022-10-16T09:21:25;96463.06;;;17.63
32039;BMP280;18549;42.286;22.688;2022-10-16T09:23:57;96470.78;;;17.71
32039;BMP280;18549;42.286;22.688;2022-10-16T09:26:24;96465.28;;;17.77
32039;BMP280;18549;42.286;22.688;2022-10-16T09:28:54;96457.72;;;17.87
32039;BMP280;18549;42.286;22.688;2022-10-16T09:31:26;96462.81;;;17.97
32039;BMP280;18549;42.286;22.688;2022-10-16T09:33:59;96462.56;;;18.00
32039;BMP280;18549;42.286;22.688;2022-10-16T09:36:34;96464.81;;;18.14
32039;BMP280;18549;42.286;22.688;2022-10-16T09:39:04;96462.44;;;18.12
32039;BMP280;18549;42.286;22.688;2022-10-16T09:41:34;96454.97;;;18.21
32039;BMP280;18549;42.286;22.688;2022-10-16T09:44:04;96460.72;;;18.33
32039;BMP280;18549;42.286;22.688;2022-10-16T09:46:40;96454.53;;;18.37
32039;BMP280;18549;42.286;22.688;2022-10-16T09:49:21;96459.13;;;18.32
32039;BMP280;18549;42.286;22.688;2022-10-16T09:51:49;96453.31;;;18.51
32039;BMP280;18549;42.286;22.688;2022-10-16T09:54:19;96456.16;;;18.67
32039;BMP280;18549;42.286;22.688;2022-10-16T09:56:48;96450.13;;;18.79
32039;BMP280;18549;42.286;22.688;2022-10-16T09:59:19;96439.81;;;18.82
32039;BMP280;18549;42.286;22.688;2022-10-16T10:01:49;96438.66;;;18.86
32039;BMP280;18549;42.286;22.688;2022-10-16T10:04:17;96431.72;;;18.99
32039;BMP280;18549;42.286;22.688;2022-10-16T10:06:46;96431.22;;;19.14
32039;BMP280;18549;42.286;22.688;2022-10-16T10:09:17;96426.78;;;19.27
32039;BMP280;18549;42.286;22.688;2022-10-16T10:11:51;96444.13;;;19.39
32039;BMP280;18549;42.286;22.688;2022-10-16T10:14:23;96429.88;;;19.49
32039;BMP280;18549;42.286;22.688;2022-10-16T10:17:11;96421.78;;;19.55
32039;BMP280;18549;42.286;22.688;2022-10-16T10:19:39;96419.94;;;19.57
32039;BMP280;18549;42.286;22.688;2022-10-16T10:22:19;96416.63;;;19.66
32039;BMP280;18549;42.286;22.688;2022-10-16T10:24:55;96411.22;;;19.80
32039;BMP280;18549;42.286;22.688;2022-10-16T10:27:28;96416.00;;;19.83
32039;BMP280;18549;42.286;22.688;2022-10-16T10:30:05;96412.41;;;19.94
32039;BMP280;18549;42.286;22.688;2022-10-16T10:32:46;96409.63;;;19.97
32039;BMP280;18549;42.286;22.688;2022-10-16T10:35:18;96398.88;;;20.14
32039;BMP280;18549;42.286;22.688;2022-10-16T10:38:00;96394.97;;;20.29
32039;BMP280;18549;42.286;22.688;2022-10-16T10:40:39;96396.84;;;20.36
32039;BMP280;18549;42.286;22.688;2022-10-16T10:43:21;96390.56;;;20.50
32039;BMP280;18549;42.286;22.688;2022-10-16T10:45:55;96388.84;;;20.59
32039;BMP280;18549;42.286;22.688;2022-10-16T10:51:31;96377.78;;;20.70
32039;BMP280;18549;42.286;22.688;2022-10-16T10:54:10;96370.47;;;20.76
32039;BMP280;18549;42.286;22.688;2022-10-16T10:56:48;96365.25;;;20.87
32039;BMP280;18549;42.286;22.688;2022-10-16T10:59:38;96373.28;;;21.00
32039;BMP280;18549;42.286;22.688;2022-10-16T11:02:13;96367.41;;;20.99
32039;BMP280;18549;42.286;22.688;2022-10-16T11:05:12;96365.94;;;21.23
32039;BMP280;18549;42.286;22.688;2022-10-16T11:07:45;96362.84;;;21.29
32039;BMP280;18549;42.286;22.688;2022-10-16T11:10:18;96366.50;;;21.44
32039;BMP280;18549;42.286;22.688;2022-10-16T11:12:50;96360.94;;;21.58
32039;BMP280;18549;42.286;22.688;2022-10-16T11:15:28;96354.69;;;21.62
32039;BMP280;18549;42.286;22.688;2022-10-16T11:18:03;96358.91;;;21.79
32039;BMP280;18549;42.286;22.688;2022-10-16T11:20:40;96349.22;;;21.91
32039;BMP280;18549;42.286;22.688;2022-10-16T11:23:15;96360.22;;;22.08
32039;BMP280;18549;42.286;22.688;2022-10-16T11:25:43;96357.81;;;22.23
32039;BMP280;18549;42.286;22.688;2022-10-16T11:28:14;96357.41;;;22.36
32039;BMP280;18549;42.286;22.688;2022-10-16T11:30:44;96347.97;;;22.46
32039;BMP280;18549;42.286;22.688;2022-10-16T11:33:26;96353.41;;;22.51
32039;BMP280;18549;42.286;22.688;2022-10-16T11:36:02;96351.50;;;22.52
32039;BMP280;18549;42.286;22.688;2022-10-16T11:38:34;96355.63;;;22.61
32039;BMP280;18549;42.286;22.688;2022-10-16T11:41:08;96337.81;;;22.71
32039;BMP280;18549;42.286;22.688;2022-10-16T11:43:38;96338.19;;;22.76
32039;BMP280;18549;42.286;22.688;2022-10-16T11:46:12;96345.03;;;22.83
32039;BMP280;18549;42.286;22.688;2022-10-16T11:48:48;96341.87;;;22.89
32039;BMP280;18549;42.286;22.688;2022-10-16T11:51:21;96330.88;;;23.06
32039;BMP280;18549;42.286;22.688;2022-10-16T11:53:58;96335.47;;;23.18
32039;BMP280;18549;42.286;22.688;2022-10-16T11:56:31;96325.34;;;23.18
32039;BMP280;18549;42.286;22.688;2022-10-16T11:59:01;96334.06;;;23.23
32039;BMP280;18549;42.286;22.688;2022-10-16T12:01:32;96326.31;;;23.25
32039;BMP280;18549;42.286;22.688;2022-10-16T12:04:16;96332.19;;;23.33
32039;BMP280;18549;42.286;22.688;2022-10-16T12:06:55;96332.50;;;23.30
32039;BMP280;18549;42.286;22.688;2022-10-16T12:09:27;96326.00;;;23.28
32039;BMP280;18549;42.286;22.688;2022-10-16T12:11:54;96331.88;;;23.28
32039;BMP280;18549;42.286;22.688;2022-10-16T12:14:34;96328.38;;;23.29
32039;BMP280;18549;42.286;22.688;2022-10-16T12:17:04;96321.53;;;23.14
32039;BMP280;18549;42.286;22.688;2022-10-16T12:19:57;96338.09;;;22.93
32039;BMP280;18549;42.286;22.688;2022-10-16T12:22:28;96320.50;;;22.76
32039;BMP280;18549;42.286;22.688;2022-10-16T12:24:56;96322.78;;;22.61
32039;BMP280;18549;42.286;22.688;2022-10-16T12:27:27;96331.22;;;22.37
32039;BMP280;18549;42.286;22.688;2022-10-16T12:29:56;96332.97;;;22.11
32039;BMP280;18549;42.286;22.688;2022-10-16T12:32:28;96330.03;;;21.98
32039;BMP280;18549;42.286;22.688;2022-10-16T12:34:57;96327.37;;;21.83
32039;BMP280;18549;42.286;22.688;2022-10-16T12:37:27;96333.88;;;21.68
32039;BMP280;18549;42.286;22.688;2022-10-16T12:39:56;96328.94;;;21.58
32039;BMP280;18549;42.286;22.688;2022-10-16T12:42:32;96329.22;;;21.38
32039;BMP280;18549;42.286;22.688;2022-10-16T12:45:01;96326.63;;;21.30
32039;BMP280;18549;42.286;22.688;2022-10-16T12:47:49;96334.03;;;21.15
32039;BMP280;18549;42.286;22.688;2022-10-16T12:50:33;96328.97;;;21.15
32039;BMP280;18549;42.286;22.688;2022-10-16T12:53:03;96320.13;;;21.11
32039;BMP280;18549;42.286;22.688;2022-10-16T12:55:35;96333.66;;;21.10
32039;BMP280;18549;42.286;22.688;2022-10-16T12:58:17;96336.59;;;21.05
32039;BMP280;18549;42.286;22.688;2022-10-16T13:00:52;96328.16;;;20.97
32039;BMP280;18549;42.286;22.688;2022-10-16T13:03:35;96333.84;;;20.99
32039;BMP280;18549;42.286;22.688;2022-10-16T13:06:19;96335.06;;;20.95
32039;BMP280;18549;42.286;22.688;2022-10-16T13:09:07;96342.00;;;20.93
32039;BMP280;18549;42.286;22.688;2022-10-16T13:11:57;96338.31;;;20.87
32039;BMP280;18549;42.286;22.688;2022-10-16T13:14:45;96340.47;;;20.83
32039;BMP280;18549;42.286;22.688;2022-10-16T13:17:21;96344.72;;;20.82
32039;BMP280;18549;42.286;22.688;2022-10-16T13:19:58;96344.19;;;20.79
32039;BMP280;18549;42.286;22.688;2022-10-16T13:22:33;96342.09;;;20.74
32039;BMP280;18549;42.286;22.688;2022-10-16T13:25:17;96344.25;;;20.69
32039;BMP280;18549;42.286;22.688;2022-10-16T13:27:52;96343.22;;;20.62
32039;BMP280;18549;42.286;22.688;2022-10-16T13:30:22;96339.78;;;20.63
32039;BMP280;18549;42.286;22.688;2022-10-16T13:32:55;96342.16;;;20.55
32039;BMP280;18549;42.286;22.688;2022-10-16T13:35:25;96340.03;;;20.51
32039;BMP280;18549;42.286;22.688;2022-10-16T13:38:04;96343.75;;;20.47
32039;BMP280;18549;42.286;22.688;2022-10-16T13:40:32;96346.16;;;20.49
32039;BMP280;18549;42.286;22.688;2022-10-16T13:43:00;96350.13;;;20.51
32039;BMP280;18549;42.286;22.688;2022-10-16T13:45:27;96347.47;;;20.52
32039;BMP280;18549;42.286;22.688;2022-10-16T13:48:02;96357.00;;;20.58
32039;BMP280;18549;42.286;22.688;2022-10-16T13:50:30;96351.78;;;20.69
32039;BMP280;18549;42.286;22.688;2022-10-16T13:53:05;96348.16;;;20.81
32039;BMP280;18549;42.286;22.688;2022-10-16T13:55:33;96352.72;;;20.95
32039;BMP280;18549;42.286;22.688;2022-10-16T13:58:17;96346.69;;;21.05
32039;BMP280;18549;42.286;22.688;2022-10-16T14:00:54;96343.97;;;21.16
32039;BMP280;18549;42.286;22.688;2022-10-16T14:03:25;96345.13;;;21.21
32039;BMP280;18549;42.286;22.688;2022-10-16T14:05:54;96349.59;;;21.27
32039;BMP280;18549;42.286;22.688;2022-10-16T14:08:25;96347.09;;;21.27
32039;BMP280;18549;42.286;22.688;2022-10-16T14:10:57;96347.88;;;21.28
32039;BMP280;18549;42.286;22.688;2022-10-16T14:13:30;96347.09;;;21.27
32039;BMP280;18549;42.286;22.688;2022-10-16T14:16:00;96341.81;;;21.21
32039;BMP280;18549;42.286;22.688;2022-10-16T14:18:29;96354.72;;;21.18
32039;BMP280;18549;42.286;22.688;2022-10-16T14:21:04;96351.81;;;21.13
32039;BMP280;18549;42.286;22.688;2022-10-16T14:23:35;96364.47;;;21.04